Time;durP1;ratioP1;P1;durP2;ratioP2;P2;SDS_P1;SDS_P2;PMS_P1;PMS_P2;Temp;Humidity;BMP_temperature;BMP_pressure;BME280_temperature;BME280_humidity;BME280_pressure;Samples;Min_cycle;Max_cycle;Signal;HPM_P1;HPM_P2
2023/08/02 00:00:33;;;;;;;;;;;18.20;93.30;;;;;;5063482;28;19970;-69
2023/08/02 00:02:59;;;;;;;;;;;18.20;93.40;;;;;;5087832;28;19961;-69
2023/08/02 00:05:24;;;;;;;;;;;18.20;93.50;;;;;;5087764;28;19972;-69
2023/08/02 00:07:50;;;;;;;;;;;18.10;93.50;;;;;;5088108;28;20004;-69
2023/08/02 00:10:16;;;;;;;;;;;18.20;93.60;;;;;;5108515;28;19912;-69
2023/08/02 00:12:41;;;;;;;;;;;18.10;93.60;;;;;;5108332;28;19908;-69
2023/08/02 00:15:07;;;;;;;;;;;18.10;93.50;;;;;;5086071;28;20018;-69
2023/08/02 00:17:32;;;;;;;;;;;18.10;93.60;;;;;;5067643;28;20319;-69
2023/08/02 00:19:58;;;;;;;;;;;18.10;93.60;;;;;;5067440;28;19916;-69
2023/08/02 00:22:23;;;;;;;;;;;18.10;93.60;;;;;;5067364;28;19912;-69
2023/08/02 00:24:49;;;;;;;;;;;18.10;93.70;;;;;;5066540;28;19927;-70
2023/08/02 00:27:14;;;;;;;;;;;18.00;93.70;;;;;;5087781;28;19915;-69
2023/08/02 00:29:40;;;;;;;;;;;18.00;93.70;;;;;;5069419;28;20061;-69
2023/08/02 00:32:06;;;;;;;;;;;18.00;93.80;;;;;;5087836;28;20395;-69
2023/08/02 00:34:31;;;;;;;;;;;18.00;93.70;;;;;;5087879;28;20058;-70
2023/08/02 00:36:57;;;;;;;;;;;18.00;93.70;;;;;;5091248;28;19912;-69
2023/08/02 00:39:23;;;;;;;;;;;18.00;93.80;;;;;;5091300;28;19926;-69
2023/08/02 00:41:48;;;;;;;;;;;17.90;93.80;;;;;;5092586;28;19916;-69
2023/08/02 00:44:14;;;;;;;;;;;17.90;93.80;;;;;;5091457;28;19965;-69
2023/08/02 00:46:39;;;;;;;;;;;17.90;93.80;;;;;;5091260;28;19912;-69
2023/08/02 00:49:05;;;;;;;;;;;17.90;93.80;;;;;;5091244;28;19913;-69
2023/08/02 00:51:33;;;;;;;;;;;17.90;93.80;;;;;;5091453;28;19916;-69
2023/08/02 00:54:02;;;;;;;;;;;17.90;93.90;;;;;;5089455;28;20001;-69
2023/08/02 00:56:27;;;;;;;;;;;17.90;93.90;;;;;;5091030;28;20281;-69
2023/08/02 00:58:53;;;;;;;;;;;17.90;93.80;;;;;;5108003;28;19920;-69
2023/08/02 01:01:19;;;;;;;;;;;17.80;93.90;;;;;;5086040;28;19916;-69
2023/08/02 01:03:44;;;;;;;;;;;17.80;94.00;;;;;;5090983;28;19939;-69
2023/08/02 01:06:13;;;;;;;;;;;17.80;93.90;;;;;;5090846;28;19912;-70
2023/08/02 01:08:40;;;;;;;;;;;17.80;94.00;;;;;;5072653;28;20653;-70
2023/08/02 01:11:17;;;;;;;;;;;17.80;94.00;;;;;;5090965;28;19912;-70
2023/08/02 01:13:47;;;;;;;;;;;17.80;94.10;;;;;;5095080;28;19916;-70
2023/08/02 01:16:14;;;;;;;;;;;17.80;94.10;;;;;;5088149;28;19916;-69
2023/08/02 01:18:39;;;;;;;;;;;17.70;94.10;;;;;;5090866;28;20069;-69
2023/08/02 01:21:05;;;;;;;;;;;17.70;94.10;;;;;;5073779;28;20015;-69
2023/08/02 01:23:30;;;;;;;;;;;17.70;94.00;;;;;;5090524;28;19912;-69
2023/08/02 01:25:58;;;;;;;;;;;17.70;94.10;;;;;;5087753;28;19919;-69
2023/08/02 01:28:24;;;;;;;;;;;17.70;94.20;;;;;;5072364;28;19962;-70
2023/08/02 01:30:50;;;;;;;;;;;17.70;94.20;;;;;;5091598;28;19935;-69
2023/08/02 01:33:16;;;;;;;;;;;17.60;94.10;;;;;;5076542;28;20024;-69
2023/08/02 01:35:42;;;;;;;;;;;17.60;94.30;;;;;;5093462;28;19990;-70
2023/08/02 01:38:07;;;;;;;;;;;17.60;94.30;;;;;;5110650;28;20056;-70
2023/08/02 01:40:33;;;;;;;;;;;17.60;94.30;;;;;;5110856;28;20027;-69
2023/08/02 01:42:58;;;;;;;;;;;17.50;94.20;;;;;;5110835;28;20406;-69
2023/08/02 01:45:24;;;;;;;;;;;17.50;94.30;;;;;;5083607;28;19915;-70
2023/08/02 01:47:51;;;;;;;;;;;17.60;94.20;;;;;;5080697;28;19919;-70
2023/08/02 01:50:16;;;;;;;;;;;17.50;94.30;;;;;;5090066;28;19912;-69
2023/08/02 01:52:42;;;;;;;;;;;17.50;94.20;;;;;;5090272;28;19908;-69
2023/08/02 01:55:07;;;;;;;;;;;17.50;94.20;;;;;;5070192;28;19908;-69
2023/08/02 01:57:33;;;;;;;;;;;17.50;94.30;;;;;;5089917;28;19911;-69
2023/08/02 01:59:58;;;;;;;;;;;17.50;94.40;;;;;;5089420;28;20035;-69
2023/08/02 02:02:24;;;;;;;;;;;17.40;94.30;;;;;;5089771;28;19908;-69
2023/08/02 02:04:50;;;;;;;;;;;17.40;94.40;;;;;;5090107;28;19938;-69
2023/08/02 02:07:16;;;;;;;;;;;17.40;94.50;;;;;;5089455;28;20385;-70
2023/08/02 02:09:42;;;;;;;;;;;17.40;94.50;;;;;;5089869;28;19919;-69
2023/08/02 02:12:07;;;;;;;;;;;17.40;94.40;;;;;;5071480;28;19912;-69
2023/08/02 02:14:33;;;;;;;;;;;17.40;94.50;;;;;;5071462;28;19944;-69
2023/08/02 02:16:58;;;;;;;;;;;17.40;94.50;;;;;;5089470;28;19916;-70
2023/08/02 02:19:24;;;;;;;;;;;17.40;94.50;;;;;;5089274;28;19923;-69
2023/08/02 02:21:49;;;;;;;;;;;17.40;94.50;;;;;;5090731;28;19999;-69
2023/08/02 02:24:15;;;;;;;;;;;17.40;94.60;;;;;;5088098;28;20005;-70
2023/08/02 02:26:40;;;;;;;;;;;17.40;94.50;;;;;;5086197;28;19916;-69
2023/08/02 02:29:06;;;;;;;;;;;17.40;94.60;;;;;;5089436;28;19908;-69
2023/08/02 02:31:31;;;;;;;;;;;17.40;94.60;;;;;;5089354;28;19912;-70
2023/08/02 02:33:57;;;;;;;;;;;17.40;94.60;;;;;;5071186;28;20365;-69
2023/08/02 02:36:22;;;;;;;;;;;17.40;94.60;;;;;;5071055;28;19908;-69
2023/08/02 02:38:48;;;;;;;;;;;17.40;94.80;;;;;;5089452;28;19916;-69
2023/08/02 02:41:14;;;;;;;;;;;17.40;94.60;;;;;;5089803;28;19979;-69
2023/08/02 02:43:39;;;;;;;;;;;17.40;94.50;;;;;;5088937;28;19919;-70
2023/08/02 02:46:04;;;;;;;;;;;17.40;94.60;;;;;;5088641;28;19927;-69
2023/08/02 02:48:30;;;;;;;;;;;17.40;94.60;;;;;;5088999;28;20001;-70
2023/08/02 02:50:56;;;;;;;;;;;17.40;94.60;;;;;;5089249;28;20622;-69
2023/08/02 02:53:23;;;;;;;;;;;17.40;94.60;;;;;;5090936;28;19908;-70
2023/08/02 02:55:49;;;;;;;;;;;17.40;94.70;;;;;;5089574;28;20604;-69
2023/08/02 02:58:14;;;;;;;;;;;17.40;94.90;;;;;;5070278;28;19916;-70
2023/08/02 03:00:40;;;;;;;;;;;17.40;94.70;;;;;;5084147;28;20554;-69
2023/08/02 03:03:05;;;;;;;;;;;17.40;94.70;;;;;;5088008;28;19916;-69
2023/08/02 03:05:30;;;;;;;;;;;17.30;94.70;;;;;;5069638;28;19954;-70
2023/08/02 03:07:56;;;;;;;;;;;17.30;94.70;;;;;;5088624;28;20308;-69
2023/08/02 03:10:21;;;;;;;;;;;17.30;94.70;;;;;;5088806;28;19935;-69
2023/08/02 03:12:47;;;;;;;;;;;17.30;94.70;;;;;;5088594;28;19912;-69
2023/08/02 03:15:12;;;;;;;;;;;17.40;94.70;;;;;;5088681;28;19993;-69
2023/08/02 03:17:38;;;;;;;;;;;17.40;94.70;;;;;;5088538;28;19981;-69
2023/08/02 03:20:04;;;;;;;;;;;17.40;94.70;;;;;;5088330;28;19928;-69
2023/08/02 03:22:29;;;;;;;;;;;17.30;94.70;;;;;;5088705;28;19912;-69
2023/08/02 03:24:55;;;;;;;;;;;17.30;94.80;;;;;;5086323;28;19927;-69
2023/08/02 03:27:20;;;;;;;;;;;17.30;94.80;;;;;;5088924;28;20015;-69
2023/08/02 03:29:46;;;;;;;;;;;17.30;94.80;;;;;;5088288;28;19932;-69
2023/08/02 03:32:11;;;;;;;;;;;17.30;95.10;;;;;;5088746;28;20029;-70
2023/08/02 03:34:37;;;;;;;;;;;17.30;94.80;;;;;;5088095;28;19947;-69
2023/08/02 03:37:03;;;;;;;;;;;17.40;94.80;;;;;;5087897;28;19912;-69
2023/08/02 03:39:28;;;;;;;;;;;17.40;94.80;;;;;;5104135;28;19977;-69
2023/08/02 03:41:54;;;;;;;;;;;17.30;94.80;;;;;;5108498;28;19919;-69
2023/08/02 03:44:20;;;;;;;;;;;17.40;94.80;;;;;;5098093;28;19913;-69
2023/08/02 03:46:45;;;;;;;;;;;17.30;94.80;;;;;;5049532;28;20361;-70
2023/08/02 03:49:11;;;;;;;;;;;17.30;94.80;;;;;;5082805;28;20002;-70
2023/08/02 03:51:36;;;;;;;;;;;17.30;94.90;;;;;;5070101;28;19912;-69
2023/08/02 03:54:03;;;;;;;;;;;17.30;94.80;;;;;;5087945;28;19909;-69
2023/08/02 03:56:29;;;;;;;;;;;17.30;94.90;;;;;;5069792;28;20045;-69
2023/08/02 03:58:54;;;;;;;;;;;17.30;94.90;;;;;;5087805;28;19932;-69
2023/08/02 04:01:20;;;;;;;;;;;17.30;94.90;;;;;;5087131;28;19916;-69
2023/08/02 04:03:45;;;;;;;;;;;17.30;94.90;;;;;;5087960;28;19955;-69
2023/08/02 04:06:11;;;;;;;;;;;17.30;94.90;;;;;;5087420;28;19913;-69
2023/08/02 04:08:36;;;;;;;;;;;17.30;94.90;;;;;;5088080;28;19909;-69
2023/08/02 04:11:03;;;;;;;;;;;17.30;94.90;;;;;;5091044;28;19943;-70
2023/08/02 04:13:29;;;;;;;;;;;17.30;94.90;;;;;;5092375;28;19916;-70
2023/08/02 04:15:54;;;;;;;;;;;17.30;94.90;;;;;;5091966;28;20022;-69
2023/08/02 04:18:20;;;;;;;;;;;17.30;94.90;;;;;;5082104;28;20630;-69
2023/08/02 04:20:45;;;;;;;;;;;17.30;95.00;;;;;;5060861;28;19998;-69
2023/08/02 04:23:11;;;;;;;;;;;17.30;95.00;;;;;;5091371;28;19912;-69
2023/08/02 04:25:36;;;;;;;;;;;17.30;95.00;;;;;;5102256;28;19916;-69
2023/08/02 04:28:02;;;;;;;;;;;17.30;95.00;;;;;;5091654;28;19915;-69
2023/08/02 04:30:27;;;;;;;;;;;17.30;95.00;;;;;;5073484;28;20282;-69
2023/08/02 04:32:54;;;;;;;;;;;17.30;95.30;;;;;;5092901;28;20361;-69
2023/08/02 04:35:19;;;;;;;;;;;17.30;95.00;;;;;;5073032;28;19912;-69
2023/08/02 04:37:45;;;;;;;;;;;17.40;95.10;;;;;;5091334;28;20753;-69
2023/08/02 04:40:10;;;;;;;;;;;17.30;95.00;;;;;;5091578;28;19916;-69
2023/08/02 04:42:36;;;;;;;;;;;17.40;95.10;;;;;;5091775;28;19912;-70
2023/08/02 04:45:01;;;;;;;;;;;17.30;95.00;;;;;;5091393;28;19908;-70
2023/08/02 04:47:27;;;;;;;;;;;17.30;95.10;;;;;;5095521;28;19935;-69
2023/08/02 04:49:53;;;;;;;;;;;17.30;95.10;;;;;;5111901;28;19953;-69
2023/08/02 04:52:19;;;;;;;;;;;17.30;95.10;;;;;;5111751;28;20537;-69
2023/08/02 04:54:44;;;;;;;;;;;17.30;95.10;;;;;;5101095;28;19920;-69
2023/08/02 04:57:10;;;;;;;;;;;17.30;95.10;;;;;;5091088;28;20273;-69
2023/08/02 04:59:35;;;;;;;;;;;17.30;95.10;;;;;;5086547;28;19916;-70
2023/08/02 05:02:01;;;;;;;;;;;17.30;95.10;;;;;;5076155;28;19915;-69
2023/08/02 05:04:26;;;;;;;;;;;17.30;95.10;;;;;;5090545;28;19916;-70
2023/08/02 05:06:53;;;;;;;;;;;17.30;95.10;;;;;;5090875;28;19913;-69
2023/08/02 05:09:19;;;;;;;;;;;17.30;95.10;;;;;;5073067;28;19955;-70
2023/08/02 05:11:44;;;;;;;;;;;17.30;95.10;;;;;;5090956;28;19974;-70
2023/08/02 05:14:11;;;;;;;;;;;17.40;95.10;;;;;;5091206;28;19916;-70
2023/08/02 05:16:37;;;;;;;;;;;17.30;95.10;;;;;;5070253;28;19973;-70
2023/08/02 05:19:03;;;;;;;;;;;17.40;95.20;;;;;;5070593;28;20377;-69
2023/08/02 05:21:29;;;;;;;;;;;17.40;95.20;;;;;;5070634;28;19912;-69
2023/08/02 05:23:55;;;;;;;;;;;17.40;95.20;;;;;;5072620;28;19920;-70
2023/08/02 05:26:21;;;;;;;;;;;17.40;95.20;;;;;;5090761;28;20308;-69
2023/08/02 05:28:47;;;;;;;;;;;17.40;95.20;;;;;;5101050;28;19912;-69
2023/08/02 05:31:12;;;;;;;;;;;17.40;95.20;;;;;;5110971;28;19912;-70
2023/08/02 05:33:40;;;;;;;;;;;17.40;95.20;;;;;;5088902;28;20353;-69
2023/08/02 05:36:05;;;;;;;;;;;17.40;95.20;;;;;;5090406;28;19951;-69
2023/08/02 05:38:34;;;;;;;;;;;17.40;95.30;;;;;;5090435;28;19916;-69
2023/08/02 05:41:03;;;;;;;;;;;17.40;95.20;;;;;;5090419;28;19998;-70
2023/08/02 05:43:29;;;;;;;;;;;17.40;95.20;;;;;;5090559;28;20381;-69
2023/08/02 05:45:54;;;;;;;;;;;17.40;95.30;;;;;;5055910;28;19923;-69
2023/08/02 05:48:20;;;;;;;;;;;17.40;95.30;;;;;;5103359;28;19912;-69
2023/08/02 05:50:45;;;;;;;;;;;17.40;95.30;;;;;;5110541;28;19912;-70
2023/08/02 05:53:11;;;;;;;;;;;17.40;95.30;;;;;;5096811;28;20065;-69
2023/08/02 05:55:37;;;;;;;;;;;17.40;95.30;;;;;;5088468;28;19912;-70
2023/08/02 05:58:03;;;;;;;;;;;17.50;95.30;;;;;;5090220;28;19912;-69
2023/08/02 06:00:28;;;;;;;;;;;17.50;95.30;;;;;;5089707;28;19908;-69
2023/08/02 06:02:54;;;;;;;;;;;17.50;95.30;;;;;;5089544;28;20385;-69
2023/08/02 06:05:20;;;;;;;;;;;17.50;95.30;;;;;;5089548;28;20021;-69
2023/08/02 06:07:45;;;;;;;;;;;17.50;95.30;;;;;;5101852;28;19915;-69
2023/08/02 06:10:11;;;;;;;;;;;17.50;95.40;;;;;;5098156;28;19916;-70
2023/08/02 06:12:36;;;;;;;;;;;17.50;95.40;;;;;;5089396;28;20388;-70
2023/08/02 06:15:02;;;;;;;;;;;17.50;95.40;;;;;;5089190;28;20376;-69
2023/08/02 06:17:29;;;;;;;;;;;17.50;95.40;;;;;;5089594;28;19947;-69
2023/08/02 06:19:55;;;;;;;;;;;17.50;95.40;;;;;;5089248;28;19918;-69
2023/08/02 06:22:20;;;;;;;;;;;17.50;95.40;;;;;;5089369;28;19918;-69
2023/08/02 06:24:46;;;;;;;;;;;17.50;95.50;;;;;;5094064;28;20671;-70
2023/08/02 06:27:11;;;;;;;;;;;17.50;95.50;;;;;;5089604;28;20511;-69
2023/08/02 06:29:37;;;;;;;;;;;17.60;95.50;;;;;;5089258;28;19989;-69
2023/08/02 06:32:03;;;;;;;;;;;17.60;95.50;;;;;;5089436;28;19909;-69
2023/08/02 06:34:28;;;;;;;;;;;17.50;95.50;;;;;;5089017;28;19912;-68
2023/08/02 06:36:54;;;;;;;;;;;17.50;95.50;;;;;;5089361;28;19920;-69
2023/08/02 06:39:20;;;;;;;;;;;17.60;95.70;;;;;;5089509;28;19963;-69
2023/08/02 06:41:45;;;;;;;;;;;17.60;95.60;;;;;;5079967;28;20007;-68
2023/08/02 06:44:11;;;;;;;;;;;17.60;95.70;;;;;;5087696;28;19912;-68
2023/08/02 06:46:36;;;;;;;;;;;17.60;95.70;;;;;;5088269;28;19908;-69
2023/08/02 06:49:02;;;;;;;;;;;17.60;95.90;;;;;;5095918;28;19923;-69
2023/08/02 06:51:27;;;;;;;;;;;17.60;95.80;;;;;;5094468;28;20357;-69
2023/08/02 06:53:57;;;;;;;;;;;17.60;95.80;;;;;;5088995;28;19924;-69
2023/08/02 06:56:23;;;;;;;;;;;17.60;95.70;;;;;;5070734;28;19998;-69
2023/08/02 06:58:48;;;;;;;;;;;17.60;95.70;;;;;;5088811;28;19931;-69
2023/08/02 07:01:15;;;;;;;;;;;17.60;95.80;;;;;;5063884;28;19935;-69
2023/08/02 07:03:41;;;;;;;;;;;17.60;95.80;;;;;;5067654;28;19916;-69
2023/08/02 07:06:15;;;;;;;;;;;17.60;95.90;;;;;;5086388;28;19915;-69
2023/08/02 07:08:41;;;;;;;;;;;17.60;95.90;;;;;;5088532;28;20413;-69
2023/08/02 07:11:07;;;;;;;;;;;17.60;95.90;;;;;;5095987;28;19919;-69
2023/08/02 07:13:33;;;;;;;;;;;17.60;95.90;;;;;;5109247;28;19994;-69
2023/08/02 07:15:59;;;;;;;;;;;17.70;95.90;;;;;;5090499;28;19912;-69
2023/08/02 07:18:25;;;;;;;;;;;17.60;95.90;;;;;;5084927;28;19923;-69
2023/08/02 07:20:50;;;;;;;;;;;17.70;95.80;;;;;;5085689;28;19958;-69
2023/08/02 07:23:16;;;;;;;;;;;17.70;95.80;;;;;;5087947;28;19923;-69
2023/08/02 07:25:41;;;;;;;;;;;17.70;95.80;;;;;;5069452;28;20015;-69
2023/08/02 07:28:07;;;;;;;;;;;17.70;96.20;;;;;;5088141;28;19912;-69
2023/08/02 07:30:32;;;;;;;;;;;17.80;95.80;;;;;;5069558;28;19937;-69
2023/08/02 07:32:58;;;;;;;;;;;17.80;95.80;;;;;;5088000;28;19915;-70
2023/08/02 07:35:23;;;;;;;;;;;17.80;95.80;;;;;;5087429;28;20386;-69
2023/08/02 07:37:49;;;;;;;;;;;17.80;95.90;;;;;;5104060;28;19915;-69
2023/08/02 07:40:14;;;;;;;;;;;17.80;95.90;;;;;;5108037;28;20023;-70
2023/08/02 07:42:40;;;;;;;;;;;17.80;95.90;;;;;;5086399;28;20368;-69
2023/08/02 07:45:07;;;;;;;;;;;17.80;95.90;;;;;;5085202;28;19912;-69
2023/08/02 07:47:33;;;;;;;;;;;17.80;95.90;;;;;;5067486;28;19919;-69
2023/08/02 07:49:59;;;;;;;;;;;17.80;95.90;;;;;;5067530;28;19916;-69
2023/08/02 07:52:24;;;;;;;;;;;17.80;96.00;;;;;;5071961;28;19950;-70
2023/08/02 07:54:53;;;;;;;;;;;17.90;96.10;;;;;;5096761;28;20619;-69
2023/08/02 07:57:20;;;;;;;;;;;17.90;96.10;;;;;;5087614;28;19951;-69
2023/08/02 07:59:46;;;;;;;;;;;17.90;96.10;;;;;;5087025;28;20036;-70
2023/08/02 08:02:12;;;;;;;;;;;17.90;96.50;;;;;;5087158;28;20515;-69
2023/08/02 08:04:38;;;;;;;;;;;17.90;96.10;;;;;;5086954;28;19995;-69
2023/08/02 08:07:03;;;;;;;;;;;17.90;96.10;;;;;;5086906;28;19936;-69
2023/08/02 08:09:29;;;;;;;;;;;18.00;96.20;;;;;;5071160;28;19920;-70
2023/08/02 08:11:54;;;;;;;;;;;18.00;96.30;;;;;;5086977;28;19920;-70
2023/08/02 08:14:20;;;;;;;;;;;18.00;96.40;;;;;;5086062;28;19919;-69
2023/08/02 08:16:45;;;;;;;;;;;18.10;96.30;;;;;;5087183;28;19949;-69
2023/08/02 08:19:11;;;;;;;;;;;18.10;96.20;;;;;;5086932;28;20327;-69
2023/08/02 08:21:36;;;;;;;;;;;18.10;96.50;;;;;;5086924;28;19912;-69
2023/08/02 08:24:02;;;;;;;;;;;18.20;96.20;;;;;;5086520;28;19916;-69
2023/08/02 08:26:27;;;;;;;;;;;18.20;96.30;;;;;;5090346;28;20303;-70
2023/08/02 08:28:53;;;;;;;;;;;18.20;96.30;;;;;;5087073;28;20239;-69
2023/08/02 08:31:18;;;;;;;;;;;18.20;96.40;;;;;;5086762;28;20010;-69
2023/08/02 08:33:44;;;;;;;;;;;18.20;96.30;;;;;;5087083;28;19908;-69
2023/08/02 08:36:15;;;;;;;;;;;18.20;96.30;;;;;;5086757;28;20606;-69
2023/08/02 08:38:41;;;;;;;;;;;18.20;96.40;;;;;;5084251;28;19923;-69
2023/08/02 08:41:07;;;;;;;;;;;18.20;96.30;;;;;;5086793;28;20285;-69
2023/08/02 08:43:33;;;;;;;;;;;18.20;96.30;;;;;;5086901;28;19912;-69
2023/08/02 08:45:59;;;;;;;;;;;18.30;96.60;;;;;;5086674;28;19916;-69
2023/08/02 08:48:25;;;;;;;;;;;18.30;96.40;;;;;;5087435;28;19909;-69
2023/08/02 08:50:53;;;;;;;;;;;18.30;96.40;;;;;;5070004;28;19922;-69
2023/08/02 08:53:22;;;;;;;;;;;18.30;96.30;;;;;;5086810;28;19958;-69
2023/08/02 08:55:49;;;;;;;;;;;18.30;96.30;;;;;;5086577;28;19912;-69
2023/08/02 08:58:14;;;;;;;;;;;18.30;96.30;;;;;;5090594;28;19985;-69
2023/08/02 09:00:40;;;;;;;;;;;18.30;96.40;;;;;;5087960;28;20544;-70
2023/08/02 09:03:06;;;;;;;;;;;18.30;96.30;;;;;;5089002;28;20492;-69
2023/08/02 09:05:32;;;;;;;;;;;18.30;96.40;;;;;;5089882;28;19916;-69
2023/08/02 09:07:58;;;;;;;;;;;18.30;96.40;;;;;;5090610;28;20285;-70
2023/08/02 09:10:24;;;;;;;;;;;18.30;96.60;;;;;;5090433;28;20705;-70
2023/08/02 09:12:49;;;;;;;;;;;18.30;96.70;;;;;;5090546;28;20041;-69
2023/08/02 09:15:15;;;;;;;;;;;18.30;96.80;;;;;;5090362;28;20362;-69
2023/08/02 09:17:48;;;;;;;;;;;18.30;96.70;;;;;;5088423;28;20365;-69
2023/08/02 09:20:14;;;;;;;;;;;18.40;96.60;;;;;;5070325;28;20011;-70
2023/08/02 09:22:39;;;;;;;;;;;18.40;96.70;;;;;;5070556;28;19999;-69
2023/08/02 09:25:09;;;;;;;;;;;18.40;96.60;;;;;;5093623;28;19926;-69
2023/08/02 09:27:35;;;;;;;;;;;18.50;96.80;;;;;;5089948;28;19920;-69
2023/08/02 09:30:01;;;;;;;;;;;18.60;96.80;;;;;;5070746;28;19916;-69
2023/08/02 09:32:26;;;;;;;;;;;18.60;97.30;;;;;;5090504;28;20006;-69
2023/08/02 09:34:56;;;;;;;;;;;18.70;97.40;;;;;;5090256;28;20320;-70
2023/08/02 09:37:32;;;;;;;;;;;18.70;97.90;;;;;;5072033;28;19912;-69
2023/08/02 09:39:58;;;;;;;;;;;18.70;97.20;;;;;;5092868;28;19920;-69
2023/08/02 09:42:27;;;;;;;;;;;18.80;97.90;;;;;;5092244;28;19915;-70
2023/08/02 09:44:53;;;;;;;;;;;18.90;97.60;;;;;;5091327;28;19923;-69
2023/08/02 09:47:18;;;;;;;;;;;18.90;97.50;;;;;;5069697;28;19916;-70
2023/08/02 09:49:45;;;;;;;;;;;18.90;97.60;;;;;;5069503;28;20003;-70
2023/08/02 09:52:25;;;;;;;;;;;19.00;97.60;;;;;;5069921;28;19912;-70
2023/08/02 09:54:50;;;;;;;;;;;19.00;97.60;;;;;;5079368;28;19912;-70
2023/08/02 09:57:16;;;;;;;;;;;19.20;97.80;;;;;;5099294;28;19916;-70
2023/08/02 09:59:42;;;;;;;;;;;19.30;97.20;;;;;;5099511;28;19928;-70
2023/08/02 10:02:08;;;;;;;;;;;19.40;97.20;;;;;;5088397;28;20491;-70
2023/08/02 10:04:34;;;;;;;;;;;19.50;97.40;;;;;;5089645;28;19919;-70
2023/08/02 10:07:03;;;;;;;;;;;19.50;97.10;;;;;;5088962;28;19920;-70
2023/08/02 10:09:30;;;;;;;;;;;19.60;97.10;;;;;;5089456;28;20415;-70
2023/08/02 10:11:55;;;;;;;;;;;19.50;97.00;;;;;;5089672;28;20006;-70
2023/08/02 10:14:21;;;;;;;;;;;19.60;97.10;;;;;;5089424;28;20515;-70
2023/08/02 10:16:47;;;;;;;;;;;19.60;97.10;;;;;;5089276;28;19908;-70
2023/08/02 10:19:13;;;;;;;;;;;19.60;97.20;;;;;;5093153;28;19922;-70
2023/08/02 10:21:42;;;;;;;;;;;19.60;97.30;;;;;;5109784;28;19916;-70
2023/08/02 10:24:08;;;;;;;;;;;19.60;96.90;;;;;;5105577;28;19912;-70
2023/08/02 10:26:34;;;;;;;;;;;19.70;96.80;;;;;;5089296;28;19912;-70
2023/08/02 10:29:01;;;;;;;;;;;19.70;96.70;;;;;;5088818;28;19916;-70
2023/08/02 10:31:26;;;;;;;;;;;19.70;97.10;;;;;;5089679;28;19912;-71
2023/08/02 10:33:52;;;;;;;;;;;19.70;97.00;;;;;;5071720;28;20320;-70
2023/08/02 10:36:17;;;;;;;;;;;19.70;97.10;;;;;;5070930;28;19934;-70
2023/08/02 10:38:43;;;;;;;;;;;19.80;96.90;;;;;;5071203;28;19920;-70
2023/08/02 10:41:13;;;;;;;;;;;19.80;97.00;;;;;;5089750;28;19916;-69
2023/08/02 10:44:00;;;;;;;;;;;19.90;97.30;;;;;;5089341;28;19955;-69
2023/08/02 10:46:29;;;;;;;;;;;19.90;96.80;;;;;;5068708;28;20369;-70
2023/08/02 10:49:15;;;;;;;;;;;19.90;97.30;;;;;;5081081;28;20645;-70
2023/08/02 10:51:42;;;;;;;;;;;19.90;97.30;;;;;;5089349;28;19991;-70
2023/08/02 10:54:21;;;;;;;;;;;19.90;97.20;;;;;;5087409;28;19919;-70
2023/08/02 10:56:53;;;;;;;;;;;19.90;97.50;;;;;;5089109;28;20381;-69
2023/08/02 10:59:25;;;;;;;;;;;20.00;97.40;;;;;;5088885;28;19915;-69
2023/08/02 11:01:53;;;;;;;;;;;20.00;97.40;;;;;;5088880;28;19987;-69
2023/08/02 11:04:19;;;;;;;;;;;20.10;97.30;;;;;;5091575;28;20652;-70
2023/08/02 11:06:44;;;;;;;;;;;20.10;97.10;;;;;;5096461;28;19919;-71
2023/08/02 11:09:10;;;;;;;;;;;20.20;97.10;;;;;;5089203;28;20619;-70
2023/08/02 11:11:36;;;;;;;;;;;20.20;97.30;;;;;;5088586;28;19912;-70
2023/08/02 11:14:02;;;;;;;;;;;20.30;97.50;;;;;;5088782;28;19965;-70
2023/08/02 11:16:28;;;;;;;;;;;20.30;97.60;;;;;;5088624;28;19916;-70
2023/08/02 11:18:54;;;;;;;;;;;20.40;97.80;;;;;;5088486;28;19945;-70
2023/08/02 11:21:19;;;;;;;;;;;20.50;97.10;;;;;;5096965;28;19919;-70
2023/08/02 11:23:49;;;;;;;;;;;20.60;97.20;;;;;;5088403;28;19908;-70
2023/08/02 11:26:15;;;;;;;;;;;20.70;97.10;;;;;;5088628;28;20006;-70
2023/08/02 11:28:42;;;;;;;;;;;20.90;96.80;;;;;;5084204;28;19916;-71
2023/08/02 11:31:07;;;;;;;;;;;21.00;96.90;;;;;;5088618;28;20424;-70
2023/08/02 11:33:33;;;;;;;;;;;21.00;96.60;;;;;;5088442;28;19912;-70
2023/08/02 11:35:58;;;;;;;;;;;21.00;96.60;;;;;;5088571;28;19958;-71
2023/08/02 11:38:25;;;;;;;;;;;21.10;96.40;;;;;;5088772;28;20347;-71
2023/08/02 11:40:50;;;;;;;;;;;21.20;96.10;;;;;;5068841;28;19924;-70
2023/08/02 11:43:16;;;;;;;;;;;21.20;96.40;;;;;;5081596;28;19912;-71
2023/08/02 11:45:42;;;;;;;;;;;21.30;96.40;;;;;;5089100;28;19965;-71
2023/08/02 11:48:22;;;;;;;;;;;21.30;96.30;;;;;;5087574;28;19912;-71
2023/08/02 11:50:48;;;;;;;;;;;21.50;96.60;;;;;;5087653;28;19908;-70
2023/08/02 11:53:14;;;;;;;;;;;21.70;96.90;;;;;;5086161;28;19912;-71
2023/08/02 11:55:40;;;;;;;;;;;21.70;96.60;;;;;;5086556;28;19916;-71
2023/08/02 11:58:06;;;;;;;;;;;21.80;96.20;;;;;;5087411;28;19919;-71
2023/08/02 12:00:35;;;;;;;;;;;21.80;96.40;;;;;;5081136;28;20477;-71
2023/08/02 12:03:14;;;;;;;;;;;21.80;96.20;;;;;;5067301;28;20952;-71
2023/08/02 12:05:40;;;;;;;;;;;21.80;96.10;;;;;;5087158;28;19916;-71
2023/08/02 12:08:11;;;;;;;;;;;21.80;96.10;;;;;;5082015;28;20529;-70
2023/08/02 12:10:41;;;;;;;;;;;21.80;96.40;;;;;;5085642;28;19908;-70
2023/08/02 12:13:10;;;;;;;;;;;21.70;96.30;;;;;;5081370;28;19916;-70
2023/08/02 12:15:36;;;;;;;;;;;21.70;96.10;;;;;;5087482;28;19966;-70
2023/08/02 12:18:05;;;;;;;;;;;21.70;96.10;;;;;;5087981;28;19909;-70
2023/08/02 12:20:34;;;;;;;;;;;21.70;96.30;;;;;;5088171;28;19923;-70
2023/08/02 12:23:00;;;;;;;;;;;21.80;96.40;;;;;;5087967;28;20361;-71
2023/08/02 12:25:26;;;;;;;;;;;21.90;96.50;;;;;;5087996;28;20004;-70
2023/08/02 12:28:04;;;;;;;;;;;22.00;96.00;;;;;;5103132;28;20000;-70
2023/08/02 12:30:30;;;;;;;;;;;22.00;96.00;;;;;;5108917;28;19908;-71
2023/08/02 12:32:56;;;;;;;;;;;22.00;95.80;;;;;;5094600;28;20337;-70
2023/08/02 12:35:21;;;;;;;;;;;22.00;96.40;;;;;;5094730;28;19912;-70
2023/08/02 12:37:47;;;;;;;;;;;22.00;96.20;;;;;;5091991;28;19965;-71
2023/08/02 12:40:12;;;;;;;;;;;21.90;96.30;;;;;;5088190;28;20349;-70
2023/08/02 12:42:38;;;;;;;;;;;21.90;96.00;;;;;;5092067;28;19911;-70
2023/08/02 12:45:04;;;;;;;;;;;21.80;96.20;;;;;;5090922;28;19908;-71
2023/08/02 12:47:29;;;;;;;;;;;21.80;96.30;;;;;;5090989;28;19924;-70
2023/08/02 12:49:57;;;;;;;;;;;21.80;96.60;;;;;;5090663;28;19912;-70
2023/08/02 12:52:22;;;;;;;;;;;21.90;96.30;;;;;;5090891;28;19912;-70
2023/08/02 12:54:48;;;;;;;;;;;21.90;96.70;;;;;;5093618;28;19923;-70
2023/08/02 12:57:13;;;;;;;;;;;21.80;96.60;;;;;;5111229;28;20010;-71
2023/08/02 12:59:39;;;;;;;;;;;21.80;96.60;;;;;;5101268;28;19920;-70
2023/08/02 13:02:05;;;;;;;;;;;21.80;96.60;;;;;;5089036;28;19912;-70
2023/08/02 13:04:30;;;;;;;;;;;21.70;96.40;;;;;;5090194;28;19913;-70
2023/08/02 13:06:57;;;;;;;;;;;21.70;96.40;;;;;;5104381;28;19923;-70
2023/08/02 13:09:23;;;;;;;;;;;21.70;96.30;;;;;;5087868;28;19912;-70
2023/08/02 13:11:49;;;;;;;;;;;21.70;96.50;;;;;;5090917;28;19923;-70
2023/08/02 13:14:14;;;;;;;;;;;21.70;96.70;;;;;;5091259;28;20049;-70
2023/08/02 13:16:40;;;;;;;;;;;21.60;96.80;;;;;;5096330;28;19948;-70
2023/08/02 13:19:05;;;;;;;;;;;21.60;96.70;;;;;;5089759;28;19916;-70
2023/08/02 13:21:30;;;;;;;;;;;21.50;96.50;;;;;;5090011;28;19920;-70
2023/08/02 13:23:56;;;;;;;;;;;21.50;96.60;;;;;;5087933;28;19995;-70
2023/08/02 13:26:22;;;;;;;;;;;21.60;97.10;;;;;;5089445;28;19920;-70
2023/08/02 13:28:47;;;;;;;;;;;21.60;97.00;;;;;;5089504;28;19919;-70
2023/08/02 13:31:13;;;;;;;;;;;21.70;96.80;;;;;;5089610;28;20069;-70
2023/08/02 13:33:41;;;;;;;;;;;21.70;97.40;;;;;;5090006;28;19912;-70
2023/08/02 13:36:10;;;;;;;;;;;21.80;97.00;;;;;;5089619;28;20455;-71
2023/08/02 13:38:35;;;;;;;;;;;21.80;97.40;;;;;;5089426;28;20666;-70
2023/08/02 13:41:01;;;;;;;;;;;21.80;96.90;;;;;;5069682;28;20049;-70
2023/08/02 13:43:27;;;;;;;;;;;21.80;97.00;;;;;;5068153;28;19961;-71
2023/08/02 13:45:52;;;;;;;;;;;21.90;96.80;;;;;;5081215;28;19916;-70
2023/08/02 13:48:18;;;;;;;;;;;21.90;97.10;;;;;;5089572;28;19990;-70
2023/08/02 13:50:43;;;;;;;;;;;21.90;97.20;;;;;;5089633;28;19908;-71
2023/08/02 13:53:09;;;;;;;;;;;21.90;97.40;;;;;;5107056;28;19911;-70
2023/08/02 13:55:34;;;;;;;;;;;21.90;97.20;;;;;;5091187;28;20344;-70
2023/08/02 13:58:00;;;;;;;;;;;21.90;97.20;;;;;;5088936;28;19919;-71
2023/08/02 14:00:26;;;;;;;;;;;22.00;97.00;;;;;;5081772;28;20006;-70
2023/08/02 14:02:51;;;;;;;;;;;21.90;97.00;;;;;;5090302;28;19912;-70
2023/08/02 14:05:17;;;;;;;;;;;21.90;97.20;;;;;;5089232;28;19912;-71
2023/08/02 14:07:42;;;;;;;;;;;21.90;97.10;;;;;;5089931;28;20017;-70
2023/08/02 14:10:08;;;;;;;;;;;21.90;97.20;;;;;;5089643;28;20414;-71